Time;durP1;ratioP1;P1;durP2;ratioP2;P2;SDS_P1;SDS_P2;PMS_P1;PMS_P2;Temp;Humidity;BMP_temperature;BMP_pressure;BME280_temperature;BME280_humidity;BME280_pressure;Samples;Min_cycle;Max_cycle;Signal;HPM_P1;HPM_P2
2021/07/24 00:01:28;;;;;;;28.95;18.48;;;;;;;14.89;100.00;97585.97;5116705;28;20051;-80
2021/07/24 00:03:55;;;;;;;28.02;17.23;;;;;;;14.89;100.00;97591.44;5116878;28;20071;-83
2021/07/24 00:06:41;;;;;;;30.33;17.92;;;;;;;14.86;100.00;97581.25;5115064;28;20043;-81
2021/07/24 00:09:08;;;;;;;29.70;18.02;;;;;;;14.86;100.00;97578.50;5114708;28;20047;-81
2021/07/24 00:11:35;;;;;;;28.67;17.80;;;;;;;14.87;100.00;97576.56;5120939;28;20050;-82
2021/07/24 00:14:01;;;;;;;31.60;18.75;;;;;;;14.87;100.00;97569.19;5116439;28;20047;-84
2021/07/24 00:16:28;;;;;;;31.35;18.25;;;;;;;14.87;100.00;97563.72;5112595;28;20130;-82
2021/07/24 00:18:57;;;;;;;28.23;18.25;;;;;;;14.91;100.00;97564.66;5092201;28;20082;-81
2021/07/24 00:21:23;;;;;;;31.08;17.80;;;;;;;14.92;100.00;97563.50;5090815;28;20487;-82
2021/07/24 00:23:50;;;;;;;28.75;17.83;;;;;;;14.89;100.00;97561.44;5112455;28;20067;-82
2021/07/24 00:26:19;;;;;;;30.02;19.35;;;;;;;14.93;100.00;97553.38;5108369;28;20051;-81
2021/07/24 00:28:45;;;;;;;29.25;19.38;;;;;;;14.93;100.00;97567.00;5113087;28;20044;-82
2021/07/24 00:31:12;;;;;;;33.88;19.52;;;;;;;14.89;100.00;97561.44;5111857;28;20027;-81
2021/07/24 00:33:39;;;;;;;34.00;19.27;;;;;;;14.99;100.00;97555.50;5112444;28;20097;-81
2021/07/24 00:36:05;;;;;;;38.47;20.50;;;;;;;14.98;100.00;97536.78;5094560;28;20444;-81
2021/07/24 00:38:32;;;;;;;33.83;21.05;;;;;;;14.97;100.00;97549.63;5094066;28;20096;-82
2021/07/24 00:41:07;;;;;;;34.67;21.55;;;;;;;14.93;100.00;97553.38;5111654;28;20069;-81
2021/07/24 00:43:35;;;;;;;32.67;20.40;;;;;;;14.89;100.00;97549.78;5100476;28;20536;-82
2021/07/24 00:46:04;;;;;;;34.67;21.45;;;;;;;14.88;100.00;97550.91;5097545;28;20047;-82
2021/07/24 00:48:32;;;;;;;37.20;21.00;;;;;;;14.81;100.00;97542.53;5116518;28;20069;-81
2021/07/24 00:50:59;;;;;;;32.83;21.33;;;;;;;14.77;100.00;97539.69;5099154;28;20031;-81
2021/07/24 00:53:34;;;;;;;33.50;20.02;;;;;;;14.77;100.00;97530.69;5118223;28;20047;-80
2021/07/24 00:56:06;;;;;;;38.28;22.08;;;;;;;14.74;100.00;97539.56;5099075;28;20417;-81
2021/07/24 00:58:37;;;;;;;36.58;22.27;;;;;;;14.67;100.00;97534.72;5116813;28;20092;-82
2021/07/24 01:01:05;;;;;;;38.70;22.33;;;;;;;14.62;100.00;97536.88;5099611;28;20106;-81
2021/07/24 01:03:32;;;;;;;36.92;21.77;;;;;;;14.47;100.00;97527.47;5118642;28;20047;-81
2021/07/24 01:05:59;;;;;;;35.97;21.83;;;;;;;14.48;100.00;97544.63;5099920;28;20051;-81
2021/07/24 01:08:26;;;;;;;41.15;22.88;;;;;;;14.44;100.00;97538.25;5118301;28;20040;-83
2021/07/24 01:10:53;;;;;;;39.60;21.88;;;;;;;14.42;100.00;97535.88;5109858;28;20051;-82
2021/07/24 01:13:20;;;;;;;40.22;23.70;;;;;;;14.41;100.00;97538.94;5104820;28;20044;-83
2021/07/24 01:15:49;;;;;;;39.90;24.00;;;;;;;14.39;100.00;97541.22;5102988;27;20505;-82
2021/07/24 01:18:19;;;;;;;46.47;23.95;;;;;;;14.38;100.00;97545.84;5117976;28;20082;-83
2021/07/24 01:20:51;;;;;;;40.35;24.27;;;;;;;14.34;100.00;97550.41;5119565;28;20035;-82
2021/07/24 01:23:18;;;;;;;40.95;24.00;;;;;;;14.33;100.00;97548.81;5118467;28;20579;-80
2021/07/24 01:25:50;;;;;;;39.10;25.02;;;;;;;14.32;100.00;97539.84;5123867;28;20039;-82
2021/07/24 01:28:26;;;;;;;43.28;25.40;;;;;;;14.36;100.00;97539.97;5105902;28;20043;-82
2021/07/24 01:30:53;;;;;;;39.42;24.85;;;;;;;14.33;100.00;97541.44;5087614;28;20036;-82
2021/07/24 01:33:20;;;;;;;44.97;25.45;;;;;;;14.23;100.00;97536.41;5123357;28;20039;-81
2021/07/24 01:35:48;;;;;;;45.03;25.75;;;;;;;14.27;100.00;97548.22;5124135;28;20043;-82
2021/07/24 01:38:15;;;;;;;42.30;24.50;;;;;;;14.21;100.00;97543.34;5132591;28;20031;-81
2021/07/24 01:40:42;;;;;;;40.88;26.42;;;;;;;14.17;100.00;97535.06;5100691;28;20031;-83
2021/07/24 01:43:10;;;;;;;43.05;26.75;;;;;;;14.11;100.00;97535.63;5136173;28;20047;-82
2021/07/24 01:45:38;;;;;;;40.58;25.40;;;;;;;14.10;100.00;97536.75;5110019;28;20043;-83
2021/07/24 01:48:14;;;;;;;45.17;26.55;;;;;;;14.08;100.00;97542.56;5126427;28;20107;-83
2021/07/24 01:53:28;;;;;;;45.08;24.65;;;;;;;13.98;100.00;97536.75;5121865;28;20040;-81
2021/07/24 01:56:04;;;;;;;39.92;24.38;;;;;;;14.00;100.00;97534.47;5100839;28;20134;-83
2021/07/24 01:58:36;;;;;;;45.70;24.65;;;;;;;13.88;100.00;97527.13;5100426;28;20112;-84
2021/07/24 02:01:06;;;;;;;48.97;25.63;;;;;;;13.90;100.00;97533.00;5119572;28;20043;-83
2021/07/24 02:03:37;;;;;;;47.92;25.10;;;;;;;13.85;100.00;97526.97;5101342;28;20036;-82
2021/07/24 02:06:04;;;;;;;42.17;25.73;;;;;;;13.85;100.00;97538.66;5125841;28;20035;-82
2021/07/24 02:08:32;;;;;;;54.30;26.10;;;;;;;13.89;100.00;97533.31;5099523;28;20054;-82
2021/07/24 02:11:00;;;;;;;49.33;27.70;;;;;;;13.92;100.00;97529.94;5096376;28;20043;-82
2021/07/24 02:13:29;;;;;;;40.03;25.42;;;;;;;14.00;100.00;97529.03;5117041;28;20040;-81
2021/07/24 02:15:58;;;;;;;38.53;24.10;;;;;;;13.97;100.00;97532.44;5120991;28;20040;-81
2021/07/24 02:18:25;;;;;;;40.88;25.05;;;;;;;13.94;100.00;97524.94;5110423;28;20096;-81
2021/07/24 02:20:54;;;;;;;41.80;23.60;;;;;;;13.98;100.00;97518.50;5107856;28;20070;-79
2021/07/24 02:23:21;;;;;;;47.30;25.38;;;;;;;13.90;100.00;97508.50;5103001;28;20044;-81
2021/07/24 02:25:48;;;;;;;43.00;24.75;;;;;;;13.90;100.00;97513.16;5102732;28;20048;-81
2021/07/24 02:28:14;;;;;;;42.15;23.20;;;;;;;13.77;100.00;97512.34;5104025;28;20113;-81
2021/07/24 02:30:41;;;;;;;42.15;25.02;;;;;;;13.78;100.00;97507.72;5103826;28;20430;-80
2021/07/24 02:33:08;;;;;;;48.33;24.85;;;;;;;13.75;100.00;97503.75;5105771;28;20067;-81
2021/07/24 02:35:34;;;;;;;44.85;24.35;;;;;;;13.66;100.00;97500.31;5103906;28;20108;-82
2021/07/24 02:38:01;;;;;;;42.17;26.17;;;;;;;13.66;100.00;97517.44;5085325;28;20048;-81
2021/07/24 02:40:28;;;;;;;52.38;27.17;;;;;;;13.65;100.00;97513.13;5103279;28;20044;-81
2021/07/24 02:42:55;;;;;;;48.05;26.20;;;;;;;13.63;100.00;97506.41;5104263;28;20044;-81
2021/07/24 02:45:22;;;;;;;40.05;24.92;;;;;;;13.61;100.00;97511.41;5102607;28;20048;-81
2021/07/24 02:47:50;;;;;;;50.83;27.98;;;;;;;13.63;100.00;97515.38;5104228;28;20051;-81
2021/07/24 02:50:17;;;;;;;51.35;27.02;;;;;;;13.60;100.00;97507.13;5137204;27;20340;-81
2021/07/24 02:52:44;;;;;;;43.88;25.17;;;;;;;13.66;100.00;97503.03;5142281;27;20557;-82
2021/07/24 02:55:11;;;;;;;45.00;24.92;;;;;;;13.77;100.00;97503.38;5124272;27;20047;-80
2021/07/24 02:57:40;;;;;;;45.20;23.52;;;;;;;13.84;100.00;97509.06;5142835;27;20047;-82
2021/07/24 03:00:07;;;;;;;46.53;22.83;;;;;;;13.81;100.00;97501.59;5142915;27;20062;-81
2021/07/24 03:02:34;;;;;;;41.45;23.80;;;;;;;13.82;100.00;97495.00;5142188;27;20039;-81
2021/07/24 03:05:01;;;;;;;37.72;22.17;;;;;;;13.78;100.00;97483.22;5142396;27;20049;-81
2021/07/24 03:07:28;;;;;;;41.08;23.63;;;;;;;13.71;100.00;97490.00;5124570;27;20035;-81
2021/07/24 03:09:54;;;;;;;54.30;23.08;;;;;;;13.60;100.00;97479.91;5123970;27;20035;-81
2021/07/24 03:12:21;;;;;;;42.67;23.25;;;;;;;13.51;100.00;97481.94;5143090;27;20043;-82
2021/07/24 03:14:48;;;;;;;49.95;24.02;;;;;;;13.52;100.00;97488.97;5124274;27;20043;-80
2021/07/24 03:17:14;;;;;;;52.20;25.15;;;;;;;13.51;100.00;97492.81;5123459;27;20108;-80
2021/07/24 03:19:41;;;;;;;45.95;24.63;;;;;;;13.50;100.00;97492.00;5140150;27;20084;-80
2021/07/24 03:22:08;;;;;;;40.53;22.95;;;;;;;13.55;100.00;97489.06;5121567;28;20042;-82
2021/07/24 03:24:35;;;;;;;40.47;21.33;;;;;;;13.57;100.00;97499.63;5120561;28;20043;-79
2021/07/24 03:27:01;;;;;;;37.60;20.90;;;;;;;13.52;100.00;97486.25;5094776;28;20047;-80
2021/07/24 03:29:28;;;;;;;33.35;20.48;;;;;;;13.57;100.00;97497.72;5090362;28;20040;-80
2021/07/24 03:31:54;;;;;;;36.10;20.23;;;;;;;13.56;100.00;97487.16;5101381;28;20050;-80
2021/07/24 03:34:21;;;;;;;38.22;21.35;;;;;;;13.60;100.00;97497.00;5100196;28;20063;-83
2021/07/24 03:36:48;;;;;;;40.85;20.77;;;;;;;13.61;100.00;97492.38;5100501;28;20071;-81
2021/07/24 03:39:14;;;;;;;36.67;21.15;;;;;;;13.58;100.00;97499.28;5082293;28;20040;-81
2021/07/24 03:41:41;;;;;;;34.95;20.92;;;;;;;13.60;100.00;97499.72;5081803;28;20050;-81
2021/07/24 03:44:07;;;;;;;41.75;21.67;;;;;;;13.63;100.00;97496.34;5100404;28;20048;-82
2021/07/24 03:46:34;;;;;;;39.25;21.95;;;;;;;13.68;100.00;97511.63;5098199;23;20050;-83
2021/07/24 03:49:01;;;;;;;43.40;22.63;;;;;;;13.71;100.00;97513.69;5107699;28;20182;-84
2021/07/24 03:51:27;;;;;;;38.53;22.05;;;;;;;13.79;100.00;97517.44;5122021;27;20035;-82
2021/07/24 03:53:54;;;;;;;40.42;21.15;;;;;;;13.86;100.00;97514.97;5128487;27;20122;-82
2021/07/24 03:56:21;;;;;;;39.05;21.45;;;;;;;13.89;100.00;97515.06;5128672;27;20043;-83
2021/07/24 03:58:50;;;;;;;35.08;20.20;;;;;;;14.01;100.00;97517.03;5129168;27;20050;-83
2021/07/24 04:01:20;;;;;;;44.05;21.00;;;;;;;13.95;100.00;97513.72;5126232;22;20130;-81
2021/07/24 04:03:46;;;;;;;35.97;19.67;;;;;;;13.95;100.00;97521.09;5113807;28;20044;-82
2021/07/24 04:06:19;;;;;;;37.05;20.45;;;;;;;13.95;100.00;97523.81;5079262;28;20040;-81
2021/07/24 04:08:46;;;;;;;41.03;21.33;;;;;;;13.96;100.00;97526.19;5114086;28;20090;-81
2021/07/24 04:11:13;;;;;;;39.15;21.08;;;;;;;14.01;100.00;97525.19;5114132;28;20048;-83
2021/07/24 04:13:39;;;;;;;36.80;21.92;;;;;;;14.06;100.00;97533.13;5079056;28;20069;-81
2021/07/24 04:16:06;;;;;;;34.22;20.88;;;;;;;14.08;100.00;97534.38;5121932;22;20043;-84
2021/07/24 04:18:34;;;;;;;32.83;20.15;;;;;;;14.26;100.00;97533.03;5087722;28;20059;-82
2021/07/24 04:21:01;;;;;;;36.03;19.42;;;;;;;14.40;100.00;97529.97;5088486;28;20096;-82
2021/07/24 04:23:28;;;;;;;35.15;20.38;;;;;;;14.52;100.00;97532.69;5086245;28;20081;-83
2021/07/24 04:25:55;;;;;;;31.13;18.75;;;;;;;14.64;100.00;97534.59;5088155;28;20066;-83
2021/07/24 04:28:23;;;;;;;37.58;20.60;;;;;;;14.64;100.00;97529.94;5122099;22;20051;-81
2021/07/24 04:30:50;;;;;;;36.63;21.73;;;;;;;14.68;100.00;97540.97;5110564;28;20702;-80
2021/07/24 04:33:17;;;;;;;36.97;19.45;;;;;;;14.75;100.00;97539.22;5091625;28;20031;-80
2021/07/24 04:35:48;;;;;;;32.58;18.90;;;;;;;14.85;100.00;97527.06;5110489;28;20055;-81
2021/07/24 04:38:16;;;;;;;30.70;20.52;;;;;;;14.85;100.00;97527.06;5105654;28;20279;-79
2021/07/24 04:40:44;;;;;;;33.88;20.30;;;;;;;14.96;100.00;97528.16;5130723;27;20118;-80
2021/07/24 04:43:13;;;;;;;41.10;19.75;;;;;;;15.08;100.00;97536.28;5096180;28;20058;-81
2021/07/24 04:45:41;;;;;;;31.55;19.65;;;;;;;15.22;100.00;97531.25;5130314;28;20039;-81
2021/07/24 04:48:08;;;;;;;27.10;18.77;;;;;;;15.34;100.00;97525.75;5131323;27;20405;-81
2021/07/24 04:50:37;;;;;;;30.73;21.20;;;;;;;15.50;100.00;97523.88;5131348;27;20043;-80
2021/07/24 04:53:04;;;;;;;32.13;20.92;;;;;;;15.67;100.00;97527.41;5112035;28;20050;-81
2021/07/24 04:55:31;;;;;;;32.03;20.92;;;;;;;15.78;100.00;97537.47;5111152;28;20051;-80
2021/07/24 04:57:58;;;;;;;31.50;20.80;;;;;;;15.93;100.00;97536.69;5131051;28;20043;-81
2021/07/24 05:00:24;;;;;;;29.08;19.05;;;;;;;16.07;100.00;97544.44;5112099;28;20508;-79
2021/07/24 05:02:51;;;;;;;31.90;19.15;;;;;;;16.19;100.00;97530.69;5116089;28;20100;-80
2021/07/24 05:05:18;;;;;;;28.45;19.00;;;;;;;16.34;100.00;97538.06;5109899;28;20040;-79
2021/07/24 05:07:45;;;;;;;28.35;18.60;;;;;;;16.44;100.00;97534.81;5122018;27;20039;-81
2021/07/24 05:10:12;;;;;;;32.72;19.15;;;;;;;16.56;100.00;97536.69;5130874;28;20116;-81
2021/07/24 05:12:40;;;;;;;30.58;19.05;;;;;;;16.63;100.00;97528.63;5130014;27;20039;-80
2021/07/24 05:15:07;;;;;;;33.05;19.90;;;;;;;16.75;100.00;97515.63;5115824;28;20484;-80
2021/07/24 05:17:38;;;;;;;29.73;18.13;;;;;;;16.91;100.00;97512.84;5120775;28;20043;-81
2021/07/24 05:20:05;;;;;;;29.15;18.40;;;;;;;17.01;100.00;97506.78;5119064;28;20099;-79
2021/07/24 05:22:32;;;;;;;32.33;19.17;;;;;;;17.13;100.00;97493.00;5136990;28;20035;-80
2021/07/24 05:24:58;;;;;;;31.50;18.33;;;;;;;17.24;100.00;97499.44;5118171;28;20206;-78
2021/07/24 05:27:25;;;;;;;26.38;17.48;;;;;;;17.37;100.00;97503.63;5115744;27;20476;-80
2021/07/24 05:29:51;;;;;;;30.45;18.75;;;;;;;17.45;100.00;97504.53;5134816;27;20051;-82
2021/07/24 05:32:18;;;;;;;31.10;17.90;;;;;;;17.55;100.00;97516.91;5126956;27;20093;-81
2021/07/24 05:34:44;;;;;;;30.25;18.33;;;;;;;17.67;100.00;97514.78;5131566;27;20043;-80
2021/07/24 05:37:11;;;;;;;27.73;18.98;;;;;;;17.77;100.00;97510.63;5117329;27;20074;-81
2021/07/24 05:39:38;;;;;;;30.83;18.85;;;;;;;17.84;100.00;97517.03;5116428;27;20042;-81
2021/07/24 05:42:04;;;;;;;30.60;18.58;;;;;;;17.85;100.00;97515.88;5116202;27;20084;-80
2021/07/24 05:44:31;;;;;;;28.95;19.15;;;;;;;17.88;100.00;97500.66;5116374;27;20095;-81
2021/07/24 05:47:01;;;;;;;29.58;19.17;;;;;;;18.01;100.00;97504.81;5135188;27;20039;-80
2021/07/24 05:49:37;;;;;;;28.05;18.83;;;;;;;18.14;100.00;97500.72;5134478;27;20121;-79
2021/07/24 05:52:24;;;;;;;34.53;19.27;;;;;;;18.32;100.00;97492.78;5136119;27;20039;-81
2021/07/24 05:54:51;;;;;;;28.48;18.80;;;;;;;18.42;100.00;97495.69;5116575;27;20044;-80
2021/07/24 05:57:18;;;;;;;33.08;20.40;;;;;;;18.51;100.00;97495.41;5118485;27;20385;-79
2021/07/24 05:59:45;;;;;;;29.90;18.52;;;;;;;18.60;100.00;97485.78;5123658;27;20463;-81
2021/07/24 06:02:15;;;;;;;30.15;18.75;;;;;;;18.63;100.00;97487.00;5134449;27;20031;-79
2021/07/24 06:04:43;;;;;;;27.77;18.58;;;;;;;18.74;100.00;97479.69;5134806;27;20063;-81
2021/07/24 06:07:11;;;;;;;29.70;19.17;;;;;;;18.89;100.00;97486.16;5133797;27;20125;-81
2021/07/24 06:09:38;;;;;;;27.45;17.80;;;;;;;18.96;100.00;97475.28;5134347;27;20039;-84
2021/07/24 06:12:06;;;;;;;32.47;19.17;;;;;;;19.00;100.00;97476.88;5139699;27;20036;-79
2021/07/24 06:14:33;;;;;;;26.58;17.77;;;;;;;19.11;100.00;97474.28;5134976;27;20125;-80
2021/07/24 06:17:00;;;;;;;28.75;18.40;;;;;;;19.18;100.00;97468.88;5115955;27;20193;-80
2021/07/24 06:19:27;;;;;;;27.52;17.48;;;;;;;19.29;100.00;97467.84;5133756;27;20070;-83
2021/07/24 06:21:54;;;;;;;28.92;17.58;;;;;;;19.42;100.00;97465.66;5133540;27;20043;-76
2021/07/24 06:24:20;;;;;;;25.65;17.10;;;;;;;19.56;100.00;97462.25;5132465;27;20047;-74
2021/07/24 06:26:49;;;;;;;26.23;16.38;;;;;;;19.68;100.00;97460.03;5134145;27;20071;-75
2021/07/24 06:29:16;;;;;;;23.55;16.17;;;;;;;19.75;100.00;97464.78;5131023;27;20041;-75
2021/07/24 06:31:42;;;;;;;24.40;16.50;;;;;;;19.75;100.00;97451.84;5132154;27;20675;-74
2021/07/24 06:34:09;;;;;;;25.48;16.73;;;;;;;19.96;100.00;97461.44;5124202;27;20036;-75
2021/07/24 06:36:39;;;;;;;26.00;16.35;;;;;;;20.07;100.00;97454.06;5111373;28;20130;-74
2021/07/24 06:39:06;;;;;;;22.40;15.40;;;;;;;20.13;100.00;97455.31;5111641;28;20060;-75
2021/07/24 06:41:33;;;;;;;25.38;15.88;;;;;;;20.19;100.00;97440.81;5112486;28;20343;-75
2021/07/24 06:44:00;;;;;;;25.13;14.73;;;;;;;20.32;100.00;97449.56;5096441;28;20047;-74
2021/07/24 06:46:27;;;;;;;24.95;14.65;;;;;;;20.43;100.00;97444.94;5096623;28;20043;-76
2021/07/24 06:48:54;;;;;;;25.20;14.93;;;;;;;20.48;100.00;97431.59;5095719;28;20070;-75
2021/07/24 06:51:20;;;;;;;23.88;14.07;;;;;;;20.62;100.00;97441.13;5109684;27;20100;-76
2021/07/24 06:53:47;;;;;;;22.58;13.52;;;;;;;20.72;100.00;97437.63;5130429;27;20115;-78
2021/07/24 06:56:13;;;;;;;21.52;13.15;;;;;;;20.79;100.00;97427.44;5130016;27;20050;-77
2021/07/24 06:58:40;;;;;;;23.52;13.30;;;;;;;20.89;100.00;97431.41;5130595;27;20043;-77
2021/07/24 07:01:10;;;;;;;20.92;12.10;;;;;;;20.97;100.00;97431.06;5133265;27;20042;-77
2021/07/24 07:03:37;;;;;;;22.75;11.93;;;;;;;21.07;100.00;97438.59;5130214;27;20043;-79
2021/07/24 07:06:05;;;;;;;19.00;12.07;;;;;;;21.24;100.00;97417.78;5131262;27;20047;-78
2021/07/24 07:08:34;;;;;;;21.08;12.48;;;;;;;21.41;100.00;97414.28;5130908;27;20061;-78
2021/07/24 07:11:03;;;;;;;22.25;12.23;;;;;;;21.48;100.00;97427.28;5113093;27;20058;-76
2021/07/24 07:13:30;;;;;;;21.15;12.25;;;;;;;21.67;100.00;97433.22;5129948;27;20047;-75
2021/07/24 07:15:57;;;;;;;22.50;12.50;;;;;;;21.79;100.00;97422.97;5097202;27;20053;-77
2021/07/24 07:18:24;;;;;;;23.73;12.60;;;;;;;21.91;100.00;97422.63;5098596;27;20413;-78
2021/07/24 07:20:53;;;;;;;19.10;12.07;;;;;;;21.88;100.00;97421.47;5116376;27;20532;-76
2021/07/24 07:23:20;;;;;;;19.88;11.55;;;;;;;22.07;100.00;97415.53;5133936;27;20504;-76
2021/07/24 07:25:48;;;;;;;17.35;11.45;;;;;;;22.21;100.00;97414.72;5114160;27;20074;-81
2021/07/24 07:28:14;;;;;;;17.50;11.32;;;;;;;22.22;100.00;97416.31;5114731;27;20063;-77
2021/07/24 07:30:41;;;;;;;20.27;11.80;;;;;;;22.52;100.00;97416.63;5130912;27;20039;-76
2021/07/24 07:33:08;;;;;;;19.77;11.63;;;;;;;22.59;100.00;97415.81;5139743;27;20456;-76
2021/07/24 07:35:35;;;;;;;16.58;11.13;;;;;;;22.72;100.00;97428.03;5152823;27;20265;-76
2021/07/24 07:38:02;;;;;;;19.10;11.60;;;;;;;22.89;100.00;97421.69;5134805;27;20042;-77
2021/07/24 07:40:29;;;;;;;18.83;11.25;;;;;;;23.07;100.00;97424.34;5131974;27;20051;-76
2021/07/24 07:42:55;;;;;;;16.95;11.40;;;;;;;23.22;100.00;97421.13;5149203;27;20415;-76
2021/07/24 07:45:22;;;;;;;14.98;10.90;;;;;;;23.38;100.00;97415.16;5148691;27;20374;-76
2021/07/24 07:47:50;;;;;;;19.83;11.60;;;;;;;23.62;100.00;97424.44;5110214;27;20493;-76
2021/07/24 07:50:17;;;;;;;20.05;11.27;;;;;;;23.66;100.00;97416.94;5110611;27;20111;-76
2021/07/24 07:52:43;;;;;;;18.25;11.02;;;;;;;23.81;100.00;97421.94;5109489;27;20095;-77
2021/07/24 07:55:10;;;;;;;24.23;10.98;;;;;;;24.06;100.00;97419.75;5110405;27;20091;-76
2021/07/24 07:57:39;;;;;;;17.20;10.15;;;;;;;24.17;100.00;97420.50;5111109;27;20269;-76
2021/07/24 08:00:10;;;;;;;26.23;10.35;;;;;;;24.28;100.00;97417.63;5131711;27;20043;-80
2021/07/24 08:02:36;;;;;;;23.80;10.80;;;;;;;24.47;100.00;97413.47;5132485;27;20297;-75
2021/07/24 08:05:03;;;;;;;16.92;9.65;;;;;;;24.50;100.00;97410.66;5147856;27;20163;-77
2021/07/24 08:07:30;;;;;;;16.23;9.88;;;;;;;24.77;100.00;97410.78;5148968;27;20053;-81
2021/07/24 08:09:57;;;;;;;17.38;9.25;;;;;;;25.02;100.00;97414.06;5150140;27;20064;-80
2021/07/24 08:12:25;;;;;;;16.77;9.45;;;;;;;25.01;100.00;97422.78;5149345;27;20095;-79
2021/07/24 08:14:55;;;;;;;15.13;9.73;;;;;;;25.13;100.00;97414.72;5100869;28;20112;-78
2021/07/24 08:17:23;;;;;;;16.52;10.00;;;;;;;25.15;100.00;97414.28;5096643;28;20067;-79
2021/07/24 08:19:52;;;;;;;16.00;9.93;;;;;;;25.43;100.00;97419.44;5111942;28;20051;-83
2021/07/24 08:22:19;;;;;;;14.95;8.73;;;;;;;25.56;100.00;97405.81;5089683;27;20055;-83
2021/07/24 08:24:48;;;;;;;15.75;9.77;;;;;;;25.61;100.00;97419.19;5109415;28;20043;-81
2021/07/24 08:27:15;;;;;;;16.02;9.45;;;;;;;25.33;100.00;97420.38;5089859;28;20040;-82
2021/07/24 08:29:42;;;;;;;18.05;9.57;;;;;;;25.50;100.00;97424.91;5095132;28;20051;-81
2021/07/24 08:32:09;;;;;;;14.80;9.48;;;;;;;25.59;100.00;97422.41;5110855;28;20047;-82
2021/07/24 08:34:36;;;;;;;17.85;9.27;;;;;;;25.75;100.00;97421.78;5145088;27;20365;-82
2021/07/24 08:37:03;;;;;;;18.33;9.38;;;;;;;26.03;100.00;97426.88;5111977;27;20050;-81
2021/07/24 08:39:29;;;;;;;16.17;9.80;;;;;;;26.15;100.00;97431.03;5114183;28;20047;-81
2021/07/24 08:41:56;;;;;;;18.85;9.05;;;;;;;26.55;100.00;97422.41;5109006;28;20561;-79
2021/07/24 08:44:23;;;;;;;15.68;9.88;;;;;;;26.72;100.00;97420.50;5113777;28;20070;-82
2021/07/24 08:46:50;;;;;;;15.98;9.05;;;;;;;26.68;100.00;97421.78;5134370;27;20062;-83
2021/07/24 08:49:16;;;;;;;18.60;9.27;;;;;;;26.80;100.00;97427.50;5131380;28;20119;-80
2021/07/24 08:51:45;;;;;;;15.48;9.45;;;;;;;26.94;100.00;97426.44;5128500;28;20181;-80
2021/07/24 08:54:12;;;;;;;22.02;9.32;;;;;;;26.86;100.00;97413.91;5143821;27;20076;-81
2021/07/24 08:56:45;;;;;;;13.55;9.23;;;;;;;27.07;100.00;97413.47;5150235;27;20113;-81
2021/07/24 08:59:17;;;;;;;18.17;9.23;;;;;;;27.16;100.00;97397.00;5130053;27;20070;-81
2021/07/24 09:01:54;;;;;;;13.90;8.88;;;;;;;27.34;100.00;97389.03;5129799;27;20348;-83
2021/07/24 09:04:22;;;;;;;16.20;9.68;;;;;;;27.35;100.00;97389.84;5139847;27;20091;-82
2021/07/24 09:06:59;;;;;;;17.40;8.50;;;;;;;27.35;100.00;97398.16;5137578;27;20043;-79
2021/07/24 09:09:26;;;;;;;15.43;9.25;;;;;;;27.38;100.00;97392.53;5113587;27;20051;-80
2021/07/24 09:11:53;;;;;;;15.73;9.23;;;;;;;27.72;100.00;97381.03;5132543;27;20076;-83
2021/07/24 09:14:20;;;;;;;15.13;9.15;;;;;;;27.78;100.00;97388.44;5114357;27;20054;-81
2021/07/24 09:16:49;;;;;;;14.10;9.55;;;;;;;28.13;100.00;97381.22;5096423;27;20661;-79
2021/07/24 09:19:23;;;;;;;17.27;9.82;;;;;;;28.42;100.00;97379.25;5112277;27;20121;-80
2021/07/24 09:21:50;;;;;;;18.42;9.30;;;;;;;28.34;95.90;97371.53;5132320;27;20054;-80
2021/07/24 09:24:21;;;;;;;17.63;8.73;;;;;;;28.63;100.00;97372.34;5131360;27;20051;-80
2021/07/24 09:26:48;;;;;;;20.73;9.27;;;;;;;28.57;91.91;97379.66;5137994;27;20051;-79
2021/07/24 09:29:17;;;;;;;16.08;8.75;;;;;;;28.91;67.24;97379.13;5116380;27;20043;-79
2021/07/24 09:31:45;;;;;;;14.63;8.50;;;;;;;29.51;68.55;97366.97;5151915;27;20107;-80
2021/07/24 09:34:13;;;;;;;21.98;8.68;;;;;;;29.98;60.17;97371.84;5155079;27;20047;-81
2021/07/24 09:36:41;;;;;;;11.38;7.90;;;;;;;30.40;48.90;97362.06;5141440;27;20054;-82
2021/07/24 09:39:09;;;;;;;10.52;7.22;;;;;;;30.96;43.49;97366.84;5119453;27;20046;-81
2021/07/24 09:41:38;;;;;;;9.23;7.25;;;;;;;30.59;39.22;97357.38;5122995;27;20081;-80
2021/07/24 09:44:05;;;;;;;9.40;6.85;;;;;;;31.50;38.99;97346.78;5110738;28;20051;-80
2021/07/24 09:46:32;;;;;;;12.23;7.57;;;;;;;30.72;43.48;97350.50;5124249;27;20050;-85
2021/07/24 09:49:15;;;;;;;13.75;6.82;;;;;;;31.49;38.12;97350.84;5136507;27;20039;-80
2021/07/24 09:51:48;;;;;;;10.07;7.13;;;;;;;32.57;36.53;97344.72;5139325;27;20492;-82
2021/07/24 09:54:28;;;;;;;15.27;7.13;;;;;;;32.89;34.58;97338.41;5141597;27;20055;-83
2021/07/24 09:56:55;;;;;;;9.52;7.10;;;;;;;32.44;35.75;97338.44;5142818;27;20062;-83
2021/07/24 09:59:24;;;;;;;14.55;7.15;;;;;;;31.85;36.69;97339.75;5144262;27;20031;-83
2021/07/24 10:02:04;;;;;;;10.68;6.63;;;;;;;30.73;38.22;97346.47;5141310;27;20051;-85
2021/07/24 10:04:33;;;;;;;9.27;7.18;;;;;;;31.23;39.53;97350.97;5140574;27;20228;-84
2021/07/24 10:07:01;;;;;;;14.70;7.20;;;;;;;31.77;36.92;97338.50;5132621;27;20055;-81
2021/07/24 10:09:34;;;;;;;12.35;7.30;;;;;;;33.67;35.02;97346.00;5119323;27;20769;-84
2021/07/24 10:12:05;;;;;;;16.38;6.93;;;;;;;34.79;32.35;97339.47;5119830;27;20524;-84
2021/07/24 10:14:34;;;;;;;14.13;7.90;;;;;;;34.68;32.85;97335.69;5111244;27;20047;-81
2021/07/24 10:17:01;;;;;;;9.25;6.85;;;;;;;32.97;34.50;97338.88;5131975;27;20055;-83
2021/07/24 10:19:28;;;;;;;9.23;6.90;;;;;;;31.77;35.65;97341.28;5129667;27;20067;-83
2021/07/24 10:21:57;;;;;;;13.07;7.97;;;;;;;32.45;35.96;97340.78;5158593;27;20046;-80
2021/07/24 10:24:24;;;;;;;11.05;7.25;;;;;;;33.03;36.82;97325.78;5104646;28;20047;-81
2021/07/24 10:27:18;;;;;;;14.93;7.03;;;;;;;32.99;36.63;97333.56;5115980;28;20109;-80
2021/07/24 10:29:57;;;;;;;10.73;7.15;;;;;;;32.84;36.80;97330.63;5110762;23;20068;-82
2021/07/24 10:32:26;;;;;;;11.68;7.25;;;;;;;33.03;36.52;97332.16;5100486;28;20048;-81
2021/07/24 10:34:54;;;;;;;12.35;7.18;;;;;;;34.45;36.91;97312.72;5102476;28;20551;-81
2021/07/24 10:37:44;;;;;;;10.50;7.10;;;;;;;34.95;33.50;97312.88;5120746;27;20073;-80
2021/07/24 10:40:19;;;;;;;11.13;7.10;;;;;;;33.74;34.21;97326.00;5104946;27;20055;-77
2021/07/24 10:42:48;;;;;;;11.52;7.40;;;;;;;35.76;32.00;97319.63;5115380;28;20653;-78
2021/07/24 10:45:33;;;;;;;9.90;7.10;;;;;;;36.08;31.16;97317.78;5113368;28;20045;-79
2021/07/24 10:48:23;;;;;;;11.38;6.85;;;;;;;36.75;30.20;97299.63;5091256;28;20052;-80
2021/07/24 10:50:53;;;;;;;10.95;7.35;;;;;;;37.76;27.24;97302.75;5109431;28;20040;-77
2021/07/24 10:53:24;;;;;;;10.15;6.93;;;;;;;35.06;30.13;97307.47;5103609;28;20037;-79
2021/07/24 10:55:52;;;;;;;8.38;6.60;;;;;;;34.04;32.80;97301.63;5108825;28;20039;-81
2021/07/24 10:58:26;;;;;;;11.57;7.80;;;;;;;34.30;33.36;97291.47;5095586;28;20101;-80
2021/07/24 11:00:54;;;;;;;7.78;6.88;;;;;;;35.75;30.93;97295.53;5077008;28;20062;-78
2021/07/24 11:03:42;;;;;;;11.32;7.38;;;;;;;34.80;32.40;97290.38;5093712;28;20035;-79
2021/07/24 11:06:29;;;;;;;10.52;7.00;;;;;;;33.72;33.04;97298.41;5075996;28;20044;-79
2021/07/24 11:09:01;;;;;;;8.10;6.95;;;;;;;34.58;31.58;97292.03;5077351;28;20109;-79
2021/07/24 11:12:07;;;;;;;11.65;7.60;;;;;;;34.10;32.17;97286.47;5097975;28;20040;-82
2021/07/24 11:14:37;;;;;;;13.70;6.87;;;;;;;32.63;34.19;97303.56;5080372;28;20048;-82
2021/07/24 11:17:12;;;;;;;13.85;7.13;;;;;;;32.11;35.29;97299.03;5114407;28;20288;-78
2021/07/24 11:19:39;;;;;;;;;;;;;;;31.57;36.68;97308.09;5116030;28;20122;-81
2021/07/24 11:22:10;;;;;;;11.75;7.22;;;;;;;33.38;34.39;97293.25;5115087;28;19931;-80
2021/07/24 11:25:01;;;;;;;10.63;7.40;;;;;;;36.10;29.78;97299.13;5113726;28;20138;-80